createdAt,value
2022-10-18T00:00:11.060Z,101103.01
2022-10-18T00:01:11.070Z,101102.89
2022-10-18T00:02:11.138Z,101103.04
2022-10-18T00:03:11.062Z,101105.56
2022-10-18T00:04:11.069Z,101107.18
2022-10-18T00:05:11.060Z,101110.22
2022-10-18T00:06:11.065Z,101108.07
2022-10-18T00:07:11.069Z,101110.07
2022-10-18T00:08:11.064Z,101113.94
2022-10-18T00:09:11.061Z,101112.88
2022-10-18T00:10:11.061Z,101117.68
2022-10-18T00:11:11.063Z,101122.01
2022-10-18T00:12:11.061Z,101122.10
2022-10-18T00:13:11.060Z,101122.04
2022-10-18T00:14:11.063Z,101124.01
2022-10-18T00:15:11.060Z,101125.44
2022-10-18T00:16:13.065Z,101120.10
2022-10-18T00:17:11.062Z,101121.25
2022-10-18T00:18:11.063Z,101118.97
2022-10-18T00:19:11.063Z,101116.20
2022-10-18T00:20:11.063Z,101114.61
2022-10-18T00:21:18.056Z,101113.27
2022-10-18T00:22:11.064Z,101111.98
2022-10-18T00:23:11.065Z,101113.28
2022-10-18T00:24:11.057Z,101114.19
2022-10-18T00:25:11.056Z,101116.23
2022-10-18T00:26:16.065Z,101121.52
2022-10-18T00:27:11.061Z,101118.57
2022-10-18T00:28:11.057Z,101120.91
2022-10-18T00:29:14.057Z,101121.34
2022-10-18T00:30:11.065Z,101120.04
2022-10-18T00:31:16.061Z,101120.06
2022-10-18T00:32:11.056Z,101121.45
2022-10-18T00:33:11.062Z,101123.09
2022-10-18T00:34:12.062Z,101119.67
2022-10-18T00:35:11.059Z,101121.26
2022-10-18T00:36:11.060Z,101120.05
2022-10-18T00:37:11.066Z,101121.23
2022-10-18T00:38:11.061Z,101120.12
2022-10-18T00:39:14.059Z,101122.19
2022-10-18T00:40:11.058Z,101123.95
2022-10-18T00:41:11.061Z,101121.86
2022-10-18T00:42:15.058Z,101128.02
2022-10-18T00:43:15.062Z,101127.83
2022-10-18T00:44:21.061Z,101128.77
2022-10-18T00:45:16.068Z,101132.99
2022-10-18T00:46:11.061Z,101135.22
2022-10-18T00:47:11.059Z,101140.37
2022-10-18T00:48:11.059Z,101140.83
2022-10-18T00:49:16.170Z,101143.24
2022-10-18T00:50:11.058Z,101145.49
2022-10-18T00:51:11.062Z,101146.94
2022-10-18T00:52:16.072Z,101147.50
2022-10-18T00:53:18.062Z,101143.94
2022-10-18T00:54:11.059Z,101145.73
2022-10-18T00:55:11.062Z,101145.48
2022-10-18T00:56:11.067Z,101146.98
2022-10-18T00:57:11.059Z,101146.23
2022-10-18T00:58:11.062Z,101143.18
2022-10-18T00:59:11.062Z,101141.36
2022-10-18T01:00:13.060Z,101145.70
2022-10-18T01:01:11.146Z,101144.65
2022-10-18T01:02:11.246Z,101144.12
2022-10-18T01:03:11.059Z,101147.34
2022-10-18T01:04:11.062Z,101143.89
2022-10-18T01:05:15.062Z,101141.68
2022-10-18T01:06:11.062Z,101143.02
2022-10-18T01:07:19.140Z,101143.58
2022-10-18T01:08:19.069Z,101142.20
2022-10-18T01:09:21.064Z,101140.98
2022-10-18T01:10:23.062Z,101144.61
2022-10-18T01:11:21.061Z,101143.49
2022-10-18T01:12:19.073Z,101146.88
2022-10-18T01:13:22.077Z,101149.66
2022-10-18T01:14:23.099Z,101151.02
2022-10-18T01:15:21.070Z,101148.05
2022-10-18T01:16:19.066Z,101151.02
2022-10-18T01:17:22.061Z,101149.22
2022-10-18T01:18:19.084Z,101149.15
2022-10-18T01:19:19.083Z,101152.57
2022-10-18T01:20:19.092Z,101151.34
2022-10-18T01:21:21.059Z,101153.17
2022-10-18T01:22:19.079Z,101152.26
2022-10-18T01:23:23.058Z,101151.30
2022-10-18T01:24:19.071Z,101152.12
2022-10-18T01:25:21.063Z,101150.53
2022-10-18T01:26:19.094Z,101149.38
2022-10-18T01:27:19.060Z,101146.90
2022-10-18T01:28:19.070Z,101144.59
2022-10-18T01:29:19.062Z,101146.32
2022-10-18T01:30:19.075Z,101148.61
2022-10-18T01:31:19.067Z,101153.91
2022-10-18T01:32:16.062Z,101152.71
2022-10-18T01:33:21.059Z,101156.68
2022-10-18T01:34:12.056Z,101159.97
2022-10-18T01:35:15.068Z,101161.25
2022-10-18T01:36:17.068Z,101163.45
2022-10-18T01:37:11.059Z,101161.75
2022-10-18T01:38:13.059Z,101167.20
2022-10-18T01:39:15.060Z,101166.09
2022-10-18T01:40:14.059Z,101168.92
2022-10-18T01:41:14.807Z,101166.53
2022-10-18T01:42:12.082Z,101167.44
2022-10-18T01:43:11.071Z,101166.02
2022-10-18T01:44:14.059Z,101166.52
2022-10-18T01:45:11.062Z,101164.51
2022-10-18T01:46:11.058Z,101167.04
2022-10-18T01:47:13.062Z,101167.53
2022-10-18T01:48:11.060Z,101167.68
2022-10-18T01:49:11.058Z,101168.62
2022-10-18T01:50:11.062Z,101169.39
2022-10-18T01:51:11.061Z,101171.29
2022-10-18T01:52:12.061Z,101170.47
2022-10-18T01:53:19.062Z,101171.30
2022-10-18T01:54:12.062Z,101170.45
2022-10-18T01:55:11.063Z,101168.16
2022-10-18T01:56:19.057Z,101172.93
2022-10-18T01:57:19.059Z,101168.55
2022-10-18T01:58:19.068Z,101170.88
2022-10-18T01:59:21.062Z,101175.24
2022-10-18T02:00:19.060Z,101170.98
2022-10-18T02:01:17.060Z,101175.30
2022-10-18T02:02:23.063Z,101169.25
2022-10-18T02:03:17.072Z,101168.56
2022-10-18T02:04:21.063Z,101165.28
2022-10-18T02:05:19.060Z,101166.10
2022-10-18T02:06:19.060Z,101163.26
2022-10-18T02:07:19.061Z,101166.21
2022-10-18T02:08:23.534Z,101165.40
2022-10-18T02:09:15.063Z,101166.34
2022-10-18T02:10:21.060Z,101170.93
2022-10-18T02:11:11.061Z,101170.80
2022-10-18T02:12:12.061Z,101176.67
2022-10-18T02:13:14.063Z,101178.02
2022-10-18T02:14:14.064Z,101179.38
2022-10-18T02:15:13.062Z,101180.56
2022-10-18T02:16:15.063Z,101181.10
2022-10-18T02:17:11.066Z,101180.01
2022-10-18T02:18:18.062Z,101178.41
2022-10-18T02:19:19.123Z,101181.57
2022-10-18T02:20:11.068Z,101180.06
2022-10-18T02:21:13.060Z,101178.13
2022-10-18T02:22:11.060Z,101177.41
2022-10-18T02:23:11.064Z,101177.92
2022-10-18T02:24:12.061Z,101177.32
2022-10-18T02:25:16.064Z,101177.99
2022-10-18T02:26:11.071Z,101176.97
2022-10-18T02:27:11.061Z,101176.43
2022-10-18T02:28:11.094Z,101174.38
2022-10-18T02:29:11.069Z,101174.47
2022-10-18T02:30:11.063Z,101181.17
2022-10-18T02:31:19.063Z,101181.61
2022-10-18T02:32:19.075Z,101185.43
2022-10-18T02:33:19.065Z,101188.41
2022-10-18T02:34:19.062Z,101190.96
2022-10-18T02:35:17.062Z,101190.66
2022-10-18T02:36:21.078Z,101193.82
2022-10-18T02:37:11.064Z,101190.64
2022-10-18T02:38:11.062Z,101190.57
2022-10-18T02:39:16.062Z,101188.52
2022-10-18T02:40:11.073Z,101188.33
2022-10-18T02:41:11.062Z,101187.04
2022-10-18T02:42:13.063Z,101187.52
2022-10-18T02:43:11.070Z,101184.85
2022-10-18T02:44:11.064Z,101189.87
2022-10-18T02:45:11.066Z,101189.05
2022-10-18T02:46:11.072Z,101191.91
2022-10-18T02:47:11.064Z,101195.95
2022-10-18T02:48:11.067Z,101198.04
2022-10-18T02:49:11.070Z,101197.78
2022-10-18T02:50:11.065Z,101198.25
2022-10-18T02:51:11.061Z,101199.49
2022-10-18T02:52:11.076Z,101202.95
2022-10-18T02:53:11.067Z,101201.04
2022-10-18T02:54:11.061Z,101201.00
2022-10-18T02:55:11.073Z,101204.77
2022-10-18T02:56:11.067Z,101208.18
2022-10-18T02:57:11.061Z,101210.00
2022-10-18T02:58:11.079Z,101208.76
2022-10-18T02:59:11.066Z,101211.17
2022-10-18T03:00:11.063Z,101214.68
2022-10-18T03:01:11.123Z,101214.09
2022-10-18T03:02:11.066Z,101216.59
2022-10-18T03:03:11.066Z,101219.21
2022-10-18T03:04:11.065Z,101221.43
2022-10-18T03:05:11.064Z,101218.41
2022-10-18T03:06:11.064Z,101218.78
2022-10-18T03:07:11.065Z,101214.34
2022-10-18T03:08:11.065Z,101212.60
2022-10-18T03:09:11.066Z,101215.25
2022-10-18T03:10:11.068Z,101212.38
2022-10-18T03:11:11.066Z,101208.41
2022-10-18T03:12:11.065Z,101211.38
2022-10-18T03:13:11.065Z,101212.83
2022-10-18T03:14:11.067Z,101216.65
2022-10-18T03:15:11.065Z,101217.33
2022-10-18T03:16:11.066Z,101219.39
2022-10-18T03:17:11.068Z,101221.92
2022-10-18T03:18:11.064Z,101223.24
2022-10-18T03:19:11.065Z,101226.14
2022-10-18T03:20:11.074Z,101228.27
2022-10-18T03:21:11.067Z,101230.41
2022-10-18T03:22:11.067Z,101233.45
2022-10-18T03:23:11.073Z,101231.38
2022-10-18T03:24:11.063Z,101232.25
2022-10-18T03:25:11.065Z,101229.29
2022-10-18T03:26:11.070Z,101232.15
2022-10-18T03:27:11.066Z,101230.05
2022-10-18T03:28:11.068Z,101230.09
2022-10-18T03:29:11.172Z,101229.98
2022-10-18T03:30:11.064Z,101233.22
2022-10-18T03:31:11.067Z,101235.56
2022-10-18T03:32:11.074Z,101235.98
2022-10-18T03:33:11.066Z,101236.80
2022-10-18T03:34:11.073Z,101238.36
2022-10-18T03:35:11.075Z,101235.51
2022-10-18T03:36:11.065Z,101237.96
2022-10-18T03:37:11.070Z,101240.75
2022-10-18T03:38:11.074Z,101244.43
2022-10-18T03:39:11.069Z,101246.90
2022-10-18T03:40:11.064Z,101246.35
2022-10-18T03:41:11.071Z,101246.67
2022-10-18T03:42:11.069Z,101248.49
2022-10-18T03:43:11.065Z,101242.39
2022-10-18T03:44:11.071Z,101243.05
2022-10-18T03:45:11.068Z,101240.78
2022-10-18T03:46:11.068Z,101240.44
2022-10-18T03:47:11.070Z,101241.44
2022-10-18T03:48:11.072Z,101241.93
2022-10-18T03:49:11.074Z,101241.77
2022-10-18T03:50:11.078Z,101244.27
2022-10-18T03:51:11.072Z,101247.39
2022-10-18T03:52:11.067Z,101247.48
2022-10-18T03:53:11.069Z,101248.69
2022-10-18T03:54:11.070Z,101250.54
2022-10-18T03:55:11.069Z,101252.20
2022-10-18T03:56:11.069Z,101252.15
2022-10-18T03:57:11.070Z,101257.91
2022-10-18T03:58:11.068Z,101257.92
2022-10-18T03:59:11.067Z,101255.14
2022-10-18T04:00:11.070Z,101255.54
2022-10-18T04:01:11.108Z,101257.64
2022-10-18T04:02:11.069Z,101253.85
2022-10-18T04:03:11.077Z,101255.73
2022-10-18T04:04:11.068Z,101258.91
2022-10-18T04:05:11.069Z,101260.22
2022-10-18T04:06:11.070Z,101257.29
2022-10-18T04:07:11.069Z,101253.85
2022-10-18T04:08:11.070Z,101254.54
2022-10-18T04:09:11.073Z,101252.96
2022-10-18T04:10:11.071Z,101250.02
2022-10-18T04:11:12.072Z,101249.59
2022-10-18T04:12:11.070Z,101245.52
2022-10-18T04:13:11.070Z,101245.46
2022-10-18T04:14:11.070Z,101249.77
2022-10-18T04:15:11.072Z,101247.89
2022-10-18T04:16:11.070Z,101249.52
2022-10-18T04:17:11.071Z,101251.33
2022-10-18T04:18:11.071Z,101251.02
2022-10-18T04:19:11.070Z,101251.12
2022-10-18T04:20:11.069Z,101256.38
2022-10-18T04:21:11.059Z,101257.45
2022-10-18T04:22:11.058Z,101256.78
2022-10-18T04:23:11.061Z,101260.32
2022-10-18T04:24:11.058Z,101262.70
2022-10-18T04:25:11.057Z,101260.82
2022-10-18T04:26:11.061Z,101262.34
2022-10-18T04:27:11.062Z,101260.92
2022-10-18T04:28:11.054Z,101263.35
2022-10-18T04:29:11.150Z,101265.96
2022-10-18T04:30:11.066Z,101268.99
2022-10-18T04:31:11.060Z,101270.14
2022-10-18T04:32:11.068Z,101274.91
2022-10-18T04:33:11.060Z,101272.94
2022-10-18T04:34:11.058Z,101276.00
2022-10-18T04:35:11.067Z,101279.13
2022-10-18T04:36:11.057Z,101278.55
2022-10-18T04:37:11.062Z,101282.54
2022-10-18T04:38:11.067Z,101281.21
2022-10-18T04:39:11.068Z,101279.10
2022-10-18T04:40:11.054Z,101285.87
2022-10-18T04:41:11.061Z,101283.63
2022-10-18T04:42:11.059Z,101281.82
2022-10-18T04:43:11.064Z,101281.00
2022-10-18T04:44:11.060Z,101280.89
2022-10-18T04:45:11.064Z,101280.50
2022-10-18T04:46:11.056Z,101281.13
2022-10-18T04:47:11.068Z,101279.93
2022-10-18T04:48:11.063Z,101282.29
2022-10-18T04:49:11.056Z,101279.28
2022-10-18T04:50:11.068Z,101283.45
2022-10-18T04:51:11.062Z,101283.06
2022-10-18T04:52:11.058Z,101287.87
2022-10-18T04:53:11.063Z,101290.90
2022-10-18T04:54:11.061Z,101294.28
2022-10-18T04:55:11.055Z,101295.12
2022-10-18T04:56:11.068Z,101298.26
2022-10-18T04:57:11.063Z,101298.94
2022-10-18T04:58:11.057Z,101297.58
2022-10-18T04:59:11.068Z,101293.91
2022-10-18T05:00:11.061Z,101288.08
2022-10-18T05:01:11.116Z,101283.61
2022-10-18T05:02:11.070Z,101281.41
2022-10-18T05:03:12.065Z,101279.43
2022-10-18T05:04:11.058Z,101282.01
2022-10-18T05:05:13.946Z,101283.71
2022-10-18T05:06:11.063Z,101282.91
2022-10-18T05:07:11.058Z,101286.36
2022-10-18T05:08:11.063Z,101287.16
2022-10-18T05:09:11.062Z,101290.78
2022-10-18T05:10:11.063Z,101289.77
2022-10-18T05:11:11.087Z,101290.35
2022-10-18T05:12:11.062Z,101287.64
2022-10-18T05:13:11.058Z,101291.07
2022-10-18T05:14:11.074Z,101288.57
2022-10-18T05:15:11.063Z,101289.48
2022-10-18T05:16:11.064Z,101285.09
2022-10-18T05:17:11.071Z,101283.92
2022-10-18T05:18:11.063Z,101287.51
2022-10-18T05:19:11.059Z,101291.04
2022-10-18T05:20:11.124Z,101290.76
2022-10-18T05:21:11.060Z,101290.44
2022-10-18T05:22:11.065Z,101292.45
2022-10-18T05:23:11.065Z,101289.98
2022-10-18T05:24:12.061Z,101292.96
2022-10-18T05:25:11.058Z,101296.33
2022-10-18T05:26:11.064Z,101293.49
2022-10-18T05:27:11.068Z,101289.39
2022-10-18T05:28:34.114Z,101288.40
2022-10-18T05:29:13.255Z,101287.73
2022-10-18T05:30:11.086Z,101287.66
2022-10-18T05:31:11.056Z,101286.68
2022-10-18T05:32:11.063Z,101291.45
2022-10-18T05:33:11.061Z,101289.35
2022-10-18T05:34:11.056Z,101293.84
2022-10-18T05:35:11.066Z,101295.18
2022-10-18T05:36:11.060Z,101294.82
2022-10-18T05:37:11.056Z,101296.02
2022-10-18T05:38:11.063Z,101297.28
2022-10-18T05:39:11.060Z,101296.75
2022-10-18T05:40:11.056Z,101298.56
2022-10-18T05:41:11.063Z,101294.70
2022-10-18T05:42:11.061Z,101293.77
2022-10-18T05:43:11.062Z,101291.96
2022-10-18T05:44:11.072Z,101291.64
2022-10-18T05:45:11.063Z,101294.48
2022-10-18T05:46:15.080Z,101297.68
2022-10-18T05:47:11.067Z,101297.36
2022-10-18T05:48:11.066Z,101299.47
2022-10-18T05:49:13.062Z,101302.16
2022-10-18T05:50:11.068Z,101305.52
2022-10-18T05:51:11.064Z,101307.89
2022-10-18T05:52:11.059Z,101309.54
2022-10-18T05:53:12.568Z,101313.83
2022-10-18T05:54:13.076Z,101312.38
2022-10-18T05:55:11.061Z,101310.76
2022-10-18T05:56:11.060Z,101313.58
2022-10-18T05:57:11.064Z,101315.30
2022-10-18T05:58:11.059Z,101316.06
2022-10-18T05:59:14.061Z,101317.81
2022-10-18T06:00:11.075Z,101318.50
2022-10-18T06:01:11.061Z,101320.00
2022-10-18T06:02:11.090Z,101321.18
2022-10-18T06:03:11.069Z,101322.79
2022-10-18T06:04:11.061Z,101324.27
2022-10-18T06:05:11.064Z,101325.38
2022-10-18T06:06:11.072Z,101322.07
2022-10-18T06:07:13.063Z,101320.89
2022-10-18T06:08:11.058Z,101318.29
2022-10-18T06:09:11.065Z,101314.54
2022-10-18T06:10:11.064Z,101315.07
2022-10-18T06:11:15.062Z,101309.64
2022-10-18T06:12:12.072Z,101308.78
2022-10-18T06:13:11.063Z,101303.48
2022-10-18T06:14:11.061Z,101306.70
2022-10-18T06:15:11.062Z,101302.66
2022-10-18T06:16:11.069Z,101302.99
2022-10-18T06:17:11.063Z,101308.38
2022-10-18T06:18:11.063Z,101309.28
2022-10-18T06:19:11.063Z,101309.03
2022-10-18T06:20:11.061Z,101304.96
2022-10-18T06:21:11.060Z,101303.94
2022-10-18T06:22:11.065Z,101302.40
2022-10-18T06:23:11.059Z,101301.79
2022-10-18T06:24:11.060Z,101303.61
2022-10-18T06:25:11.061Z,101307.18
2022-10-18T06:26:11.062Z,101304.17
2022-10-18T06:27:12.060Z,101307.29
2022-10-18T06:28:12.208Z,101309.25
2022-10-18T06:29:11.156Z,101309.55
2022-10-18T06:30:11.061Z,101311.98
2022-10-18T06:31:11.060Z,101313.34
2022-10-18T06:32:11.060Z,101312.53
2022-10-18T06:33:11.061Z,101314.89
2022-10-18T06:34:11.063Z,101316.84
2022-10-18T06:35:11.060Z,101314.03
2022-10-18T06:36:17.063Z,101312.11
2022-10-18T06:37:11.070Z,101309.66
2022-10-18T06:38:11.061Z,101309.19
2022-10-18T06:39:11.063Z,101308.84
2022-10-18T06:40:11.068Z,101311.32
2022-10-18T06:41:11.061Z,101313.77
2022-10-18T06:42:11.059Z,101317.52
2022-10-18T06:43:21.112Z,101319.07
2022-10-18T06:44:17.473Z,101316.94
2022-10-18T06:45:11.062Z,101316.12
2022-10-18T06:46:11.061Z,101317.50
2022-10-18T06:47:11.062Z,101316.11
2022-10-18T06:48:11.101Z,101317.52
2022-10-18T06:49:13.044Z,101315.34
2022-10-18T06:50:11.063Z,101316.68
2022-10-18T06:51:11.060Z,101319.01
2022-10-18T06:52:11.061Z,101323.62
2022-10-18T06:53:12.062Z,101322.01
2022-10-18T06:54:17.996Z,101320.36
2022-10-18T06:55:13.094Z,101319.65
2022-10-18T06:56:12.069Z,101317.75
2022-10-18T06:57:11.066Z,101321.91
2022-10-18T06:58:11.064Z,101322.27
2022-10-18T06:59:11.071Z,101320.27
2022-10-18T07:00:11.060Z,101323.96
2022-10-18T07:01:11.093Z,101325.19
2022-10-18T07:02:14.064Z,101324.93
2022-10-18T07:03:11.060Z,101325.93
2022-10-18T07:04:11.064Z,101321.03
2022-10-18T07:05:11.069Z,101324.93
2022-10-18T07:06:11.062Z,101319.90
2022-10-18T07:07:11.068Z,101320.02
2022-10-18T07:08:11.065Z,101319.41
2022-10-18T07:09:11.062Z,101321.33
2022-10-18T07:10:13.036Z,101324.66
2022-10-18T07:11:14.063Z,101324.24
2022-10-18T07:12:11.064Z,101327.30
2022-10-18T07:13:31.324Z,101322.39
2022-10-18T07:14:16.316Z,101323.46
2022-10-18T07:15:11.065Z,101322.27
2022-10-18T07:16:14.109Z,101322.67
2022-10-18T07:17:13.076Z,101323.86
2022-10-18T07:18:11.070Z,101323.93
2022-10-18T07:19:11.065Z,101322.38
2022-10-18T07:20:11.075Z,101324.45
2022-10-18T07:21:11.064Z,101326.86
2022-10-18T07:22:11.058Z,101330.86
2022-10-18T07:23:12.054Z,101334.07
2022-10-18T07:24:11.062Z,101335.60
2022-10-18T07:25:11.081Z,101340.85
2022-10-18T07:26:15.055Z,101342.05
2022-10-18T07:27:11.057Z,101346.02
2022-10-18T07:28:11.060Z,101348.44
2022-10-18T07:29:11.157Z,101348.38
2022-10-18T07:30:11.058Z,101349.21
2022-10-18T07:31:11.060Z,101352.04
2022-10-18T07:32:11.058Z,101353.31
2022-10-18T07:33:11.061Z,101358.81
2022-10-18T07:34:12.061Z,101356.27
2022-10-18T07:36:11.058Z,101360.62
2022-10-18T07:37:11.060Z,101357.95
2022-10-18T07:38:11.080Z,101361.19
2022-10-18T07:39:11.064Z,101359.48
2022-10-18T07:40:11.059Z,101358.39
2022-10-18T07:41:13.055Z,101359.27
2022-10-18T07:42:11.060Z,101360.86
2022-10-18T07:43:12.305Z,101365.70
2022-10-18T07:44:11.055Z,101365.38
2022-10-18T07:45:11.059Z,101367.99
2022-10-18T07:46:11.059Z,101372.07
2022-10-18T07:47:11.058Z,101370.65
2022-10-18T07:48:11.135Z,101377.99
2022-10-18T07:49:11.059Z,101376.71
2022-10-18T07:50:11.059Z,101380.50
2022-10-18T07:51:11.089Z,101381.36
2022-10-18T07:52:11.060Z,101381.41
2022-10-18T07:53:11.060Z,101384.16
2022-10-18T07:54:11.059Z,101383.75
2022-10-18T07:55:11.060Z,101382.76
2022-10-18T07:56:11.058Z,101385.39
2022-10-18T07:57:11.061Z,101387.50
2022-10-18T07:58:11.060Z,101390.00
2022-10-18T07:59:11.059Z,101394.50
2022-10-18T08:00:11.058Z,101394.82
2022-10-18T08:01:11.116Z,101394.53
2022-10-18T08:02:11.060Z,101390.33
2022-10-18T08:03:11.059Z,101390.95
2022-10-18T08:04:16.102Z,101386.14
2022-10-18T08:05:13.109Z,101386.32
2022-10-18T08:06:11.060Z,101388.57
2022-10-18T08:07:11.061Z,101391.66
2022-10-18T08:08:11.214Z,101390.96
2022-10-18T08:09:11.060Z,101394.99
2022-10-18T08:10:11.061Z,101396.71
2022-10-18T08:11:15.068Z,101397.77
2022-10-18T08:12:11.065Z,101397.59
2022-10-18T08:13:11.061Z,101401.35
2022-10-18T08:14:11.062Z,101399.91
2022-10-18T08:15:11.062Z,101400.87
2022-10-18T08:16:11.072Z,101400.36
2022-10-18T08:17:11.061Z,101403.51
2022-10-18T08:18:11.064Z,101403.40
2022-10-18T08:19:11.069Z,101405.80
2022-10-18T08:20:18.972Z,101405.75
2022-10-18T08:21:13.075Z,101407.64
2022-10-18T08:22:11.056Z,101409.41
2022-10-18T08:23:11.062Z,101410.45
2022-10-18T08:24:11.057Z,101411.27
2022-10-18T08:25:11.058Z,101411.83
2022-10-18T08:26:11.060Z,101409.81
2022-10-18T08:27:11.058Z,101414.04
2022-10-18T08:28:11.059Z,101415.06
2022-10-18T08:29:22.439Z,101414.79
2022-10-18T08:30:13.181Z,101415.40
2022-10-18T08:31:12.058Z,101418.38
2022-10-18T08:32:11.060Z,101422.45
2022-10-18T08:33:11.060Z,101424.87
2022-10-18T08:34:11.753Z,101424.33
2022-10-18T08:35:11.073Z,101425.80
2022-10-18T08:36:12.060Z,101424.05
2022-10-18T08:37:11.058Z,101423.45
2022-10-18T08:38:18.022Z,101425.94
2022-10-18T08:39:11.067Z,101427.84
2022-10-18T08:40:12.090Z,101427.14
2022-10-18T08:41:19.074Z,101429.55
2022-10-18T08:42:19.058Z,101426.97
2022-10-18T08:43:21.663Z,101428.86
2022-10-18T08:44:19.060Z,101432.89
2022-10-18T08:45:13.008Z,101436.19
2022-10-18T08:46:15.154Z,101443.94
2022-10-18T08:47:19.068Z,101445.16
2022-10-18T08:48:17.067Z,101451.32
2022-10-18T08:49:16.058Z,101452.04
2022-10-18T08:50:18.101Z,101452.44
2022-10-18T08:51:19.061Z,101451.30
2022-10-18T08:52:22.067Z,101451.70
2022-10-18T08:53:19.062Z,101451.48
2022-10-18T08:54:15.064Z,101446.18
2022-10-18T08:55:22.057Z,101443.02
2022-10-18T08:56:12.063Z,101444.18
2022-10-18T08:57:15.070Z,101443.88
2022-10-18T08:58:22.063Z,101444.48
2022-10-18T08:59:13.066Z,101445.89
2022-10-18T09:00:18.139Z,101450.80
2022-10-18T09:01:19.069Z,101452.66
2022-10-18T09:02:22.130Z,101456.17
2022-10-18T09:03:21.084Z,101455.68
2022-10-18T09:04:19.062Z,101456.13
2022-10-18T09:05:22.058Z,101455.72
2022-10-18T09:06:21.276Z,101459.07
2022-10-18T09:07:19.066Z,101456.55
2022-10-18T09:08:21.064Z,101459.38
2022-10-18T09:09:19.065Z,101459.50
2022-10-18T09:10:19.061Z,101459.47
2022-10-18T09:11:19.066Z,101460.93
2022-10-18T09:12:19.072Z,101460.61
2022-10-18T09:13:19.064Z,101461.54
2022-10-18T09:14:19.067Z,101461.46
2022-10-18T09:15:19.062Z,101462.09
2022-10-18T09:16:12.066Z,101468.13
2022-10-18T09:17:22.072Z,101469.19
2022-10-18T09:18:21.071Z,101472.50
2022-10-18T09:19:21.063Z,101468.44
2022-10-18T09:20:22.063Z,101472.00
2022-10-18T09:21:19.057Z,101471.35
2022-10-18T09:22:16.057Z,101469.66
2022-10-18T09:23:21.068Z,101470.89
2022-10-18T09:24:14.067Z,101475.73
2022-10-18T09:25:18.059Z,101474.98
2022-10-18T09:26:18.058Z,101473.89
2022-10-18T09:27:16.058Z,101476.35
2022-10-18T09:28:22.075Z,101474.05
2022-10-18T09:29:22.070Z,101473.43
2022-10-18T09:30:19.061Z,101476.64
2022-10-18T09:31:19.060Z,101477.29
2022-10-18T09:32:22.058Z,101477.92
2022-10-18T09:33:19.059Z,101479.88
2022-10-18T09:34:19.060Z,101480.48
2022-10-18T09:35:19.068Z,101478.41
2022-10-18T09:36:16.060Z,101478.97
2022-10-18T09:37:13.126Z,101477.82
2022-10-18T09:38:12.145Z,101477.98
2022-10-18T09:39:15.068Z,101477.55
2022-10-18T09:40:19.223Z,101477.39
2022-10-18T09:41:16.058Z,101470.38
2022-10-18T09:42:19.061Z,101474.62
2022-10-18T09:43:18.072Z,101476.93
2022-10-18T09:44:24.088Z,101480.31
2022-10-18T09:45:22.060Z,101485.29
2022-10-18T09:46:11.062Z,101485.34
2022-10-18T09:47:17.054Z,101487.58
2022-10-18T09:48:21.069Z,101486.16
2022-10-18T09:49:17.066Z,101486.66
2022-10-18T09:50:22.060Z,101488.42
2022-10-18T09:51:13.069Z,101485.41
2022-10-18T09:52:20.065Z,101485.32
2022-10-18T09:53:19.075Z,101484.04
2022-10-18T09:54:19.072Z,101486.09
2022-10-18T09:55:19.062Z,101487.93
2022-10-18T09:56:17.067Z,101488.28
2022-10-18T09:57:18.067Z,101489.39
2022-10-18T09:58:12.071Z,101492.77
2022-10-18T09:59:19.061Z,101493.06
2022-10-18T10:00:16.060Z,101497.48
2022-10-18T10:01:11.066Z,101496.50
2022-10-18T10:02:15.141Z,101493.48
2022-10-18T10:03:13.062Z,101496.18
2022-10-18T10:04:11.062Z,101496.66
2022-10-18T10:05:15.075Z,101494.18
2022-10-18T10:06:15.063Z,101498.09
2022-10-18T10:07:15.063Z,101495.41
2022-10-18T10:08:11.074Z,101492.61
2022-10-18T10:09:15.065Z,101492.95
2022-10-18T10:10:19.061Z,101493.98
2022-10-18T10:11:19.064Z,101490.17
2022-10-18T10:12:19.072Z,101490.09
2022-10-18T10:13:15.072Z,101489.20
2022-10-18T10:14:21.067Z,101492.19
2022-10-18T10:15:19.065Z,101490.40
2022-10-18T10:16:11.070Z,101496.65
2022-10-18T10:17:19.069Z,101491.91
2022-10-18T10:18:19.063Z,101490.25
2022-10-18T10:19:18.063Z,101491.05
2022-10-18T10:20:17.065Z,101490.66
2022-10-18T10:21:15.066Z,101488.11
2022-10-18T10:22:14.059Z,101488.46
2022-10-18T10:24:19.059Z,101495.41
2022-10-18T10:25:19.071Z,101494.75
2022-10-18T10:26:19.062Z,101494.20
2022-10-18T10:27:22.059Z,101497.89
2022-10-18T10:28:16.062Z,101496.29
2022-10-18T10:29:33.493Z,101494.85
2022-10-18T10:30:21.085Z,101488.52
2022-10-18T10:31:18.058Z,101493.92
2022-10-18T10:32:17.177Z,101495.40
2022-10-18T10:33:19.064Z,101496.28
2022-10-18T10:34:19.061Z,101496.73
2022-10-18T10:35:35.310Z,101497.56
2022-10-18T10:36:20.095Z,101499.16
2022-10-18T10:37:19.062Z,101499.16
2022-10-18T10:38:19.070Z,101499.43
2022-10-18T10:39:14.064Z,101495.96
2022-10-18T10:40:20.506Z,101499.59
2022-10-18T10:41:19.080Z,101500.10
2022-10-18T10:42:14.065Z,101504.50
2022-10-18T10:43:36.571Z,101504.07
2022-10-18T10:44:17.077Z,101503.62
2022-10-18T10:45:14.064Z,101506.50
2022-10-18T10:46:18.058Z,101504.39
2022-10-18T10:47:11.065Z,101505.68
2022-10-18T10:48:15.071Z,101504.24
2022-10-18T10:49:39.768Z,101499.76
2022-10-18T10:50:16.249Z,101497.55
2022-10-18T10:51:13.059Z,101496.29
2022-10-18T10:52:26.738Z,101492.74
2022-10-18T10:53:21.087Z,101490.11
2022-10-18T10:54:18.062Z,101491.27
2022-10-18T10:55:33.994Z,101485.80
2022-10-18T10:56:22.087Z,101489.38
2022-10-18T10:57:20.065Z,101489.05
2022-10-18T10:58:17.072Z,101486.13
2022-10-18T10:59:15.111Z,101481.72
2022-10-18T11:00:19.072Z,101486.28
2022-10-18T11:01:21.111Z,101482.15
2022-10-18T11:02:19.073Z,101482.32
2022-10-18T11:03:29.552Z,101482.04
2022-10-18T11:04:21.120Z,101484.37
2022-10-18T11:05:22.063Z,101478.23
2022-10-18T11:06:19.068Z,101477.20
2022-10-18T11:07:19.068Z,101481.01
2022-10-18T11:08:11.094Z,101476.08
2022-10-18T11:09:21.111Z,101474.88
2022-10-18T11:10:16.067Z,101482.37
2022-10-18T11:11:23.125Z,101482.30
2022-10-18T11:12:19.079Z,101480.57
2022-10-18T11:13:19.068Z,101483.36
2022-10-18T11:14:25.616Z,101480.10
2022-10-18T11:15:23.080Z,101475.93
2022-10-18T11:16:17.068Z,101472.04
2022-10-18T11:17:17.074Z,101471.15
2022-10-18T11:18:19.066Z,101469.49
2022-10-18T11:19:18.065Z,101466.04
2022-10-18T11:20:19.065Z,101460.88
2022-10-18T11:21:23.058Z,101459.12
2022-10-18T11:22:16.066Z,101459.39
2022-10-18T11:23:12.061Z,101460.71
2022-10-18T11:24:15.059Z,101459.11
2022-10-18T11:25:15.059Z,101456.43
2022-10-18T11:26:22.060Z,101454.75